createdAt,value
2023-01-30T00:00:09.773Z,33.10
2023-01-30T00:01:09.729Z,34.50
2023-01-30T00:02:09.773Z,33.40
2023-01-30T00:03:09.736Z,32.80
2023-01-30T00:04:09.743Z,33.00
2023-01-30T00:05:09.728Z,32.70
2023-01-30T00:06:09.713Z,33.40
2023-01-30T00:07:09.687Z,32.30
2023-01-30T00:08:09.665Z,31.80
2023-01-30T00:09:09.641Z,32.40
2023-01-30T00:10:09.635Z,33.70
2023-01-30T00:11:09.626Z,32.30
2023-01-30T00:12:09.615Z,32.00
2023-01-30T00:13:09.577Z,34.90
2023-01-30T00:14:09.566Z,31.60
2023-01-30T00:15:09.614Z,32.10
2023-01-30T00:16:09.628Z,33.00
2023-01-30T00:17:09.542Z,31.90
2023-01-30T00:18:09.533Z,34.90
2023-01-30T00:19:09.515Z,32.60
2023-01-30T00:20:09.508Z,32.10
2023-01-30T00:21:09.475Z,34.50
2023-01-30T00:22:09.479Z,32.20
2023-01-30T00:23:09.457Z,33.60
2023-01-30T00:24:09.463Z,32.70
2023-01-30T00:25:09.665Z,33.20
2023-01-30T00:26:09.450Z,33.10
2023-01-30T00:27:09.434Z,33.30
2023-01-30T00:28:09.399Z,32.00
2023-01-30T00:29:09.385Z,33.40
2023-01-30T00:30:09.367Z,32.50
2023-01-30T00:31:09.375Z,33.10
2023-01-30T00:32:09.373Z,33.40
2023-01-30T00:33:09.339Z,33.50
2023-01-30T00:34:09.319Z,32.90
2023-01-30T00:35:09.327Z,32.20
2023-01-30T00:36:09.341Z,34.40
2023-01-30T00:37:09.335Z,33.40
2023-01-30T00:38:09.278Z,32.60
2023-01-30T00:39:09.267Z,33.00
2023-01-30T00:40:09.258Z,31.80
2023-01-30T00:41:09.238Z,35.30
2023-01-30T00:42:09.243Z,31.80
2023-01-30T00:44:09.237Z,33.30
2023-01-30T00:45:09.193Z,32.10
2023-01-30T00:46:09.301Z,34.10
2023-01-30T00:47:09.274Z,32.70
2023-01-30T00:48:09.138Z,33.60
2023-01-30T00:49:09.222Z,32.60
2023-01-30T00:50:09.149Z,33.00
2023-01-30T00:51:09.109Z,32.60
2023-01-30T00:52:09.162Z,32.10
2023-01-30T00:53:09.083Z,33.20
2023-01-30T00:54:09.102Z,31.40
2023-01-30T00:55:09.049Z,33.10
2023-01-30T00:56:09.108Z,33.40
2023-01-30T00:57:09.038Z,32.60
2023-01-30T00:58:09.042Z,32.40
2023-01-30T00:59:09.056Z,33.20
2023-01-30T01:00:09.004Z,31.80
2023-01-30T01:01:08.983Z,34.10
2023-01-30T01:02:09.033Z,32.80
2023-01-30T01:03:09.029Z,32.00
2023-01-30T01:04:08.992Z,32.30
2023-01-30T01:05:08.930Z,32.00
2023-01-30T01:06:08.918Z,32.20
2023-01-30T01:07:08.915Z,33.60
2023-01-30T01:08:08.908Z,32.70
2023-01-30T01:09:08.916Z,32.20
2023-01-30T01:10:08.884Z,32.80
2023-01-30T01:11:08.848Z,32.90
2023-01-30T01:12:08.860Z,32.20
2023-01-30T01:13:08.818Z,32.40
2023-01-30T01:14:08.846Z,32.00
2023-01-30T01:15:08.827Z,32.50
2023-01-30T01:16:08.979Z,32.90
2023-01-30T01:17:08.793Z,32.50
2023-01-30T01:18:08.767Z,31.50
2023-01-30T01:19:08.779Z,32.00
2023-01-30T01:20:08.825Z,31.80
2023-01-30T01:21:08.756Z,31.90
2023-01-30T01:22:08.747Z,32.20
2023-01-30T01:23:08.709Z,32.80
2023-01-30T01:24:08.715Z,32.00
2023-01-30T01:25:08.690Z,32.10
2023-01-30T01:26:08.696Z,31.90
2023-01-30T01:27:08.650Z,31.10
2023-01-30T01:28:08.675Z,33.20
2023-01-30T01:29:08.625Z,32.70
2023-01-30T01:30:08.653Z,31.40
2023-01-30T01:31:08.712Z,33.40
2023-01-30T01:32:08.677Z,32.40
2023-01-30T01:33:08.589Z,33.00
2023-01-30T01:34:08.594Z,31.40
2023-01-30T01:35:08.579Z,32.80
2023-01-30T01:36:08.573Z,31.40
2023-01-30T01:37:08.538Z,32.70
2023-01-30T01:38:08.548Z,34.00
2023-01-30T01:39:08.534Z,32.50
2023-01-30T01:40:08.522Z,33.50
2023-01-30T01:41:08.477Z,31.50
2023-01-30T01:42:09.588Z,32.20
2023-01-30T01:43:08.451Z,32.40
2023-01-30T01:44:08.466Z,33.10
2023-01-30T01:45:08.443Z,32.80
2023-01-30T01:46:08.530Z,33.00
2023-01-30T01:47:08.411Z,32.40
2023-01-30T01:48:08.396Z,33.40
2023-01-30T01:49:08.393Z,31.80
2023-01-30T01:50:08.384Z,32.70
2023-01-30T01:51:08.378Z,31.30
2023-01-30T01:52:08.395Z,34.30
2023-01-30T01:53:08.334Z,31.70
2023-01-30T01:54:08.323Z,30.50
2023-01-30T01:55:08.310Z,33.30
2023-01-30T01:56:08.311Z,33.50
2023-01-30T01:57:08.290Z,32.30
2023-01-30T01:58:08.459Z,31.70
2023-01-30T01:59:08.260Z,33.40
2023-01-30T02:00:08.259Z,31.70
2023-01-30T02:01:08.262Z,32.30
2023-01-30T02:02:08.281Z,32.10
2023-01-30T02:03:08.222Z,31.20
2023-01-30T02:04:08.189Z,31.80
2023-01-30T02:05:08.189Z,32.90
2023-01-30T02:06:08.229Z,35.30
2023-01-30T02:07:08.169Z,32.30
2023-01-30T02:08:08.204Z,32.20
2023-01-30T02:09:08.126Z,32.60
2023-01-30T02:10:08.129Z,34.40
2023-01-30T02:11:08.132Z,31.80
2023-01-30T02:12:08.111Z,31.50
2023-01-30T02:13:08.082Z,32.70
2023-01-30T02:14:08.090Z,33.40
2023-01-30T02:15:08.061Z,32.40
2023-01-30T02:16:08.055Z,31.60
2023-01-30T02:17:08.043Z,33.80
2023-01-30T02:18:08.026Z,31.30
2023-01-30T02:19:08.033Z,33.00
2023-01-30T02:20:08.006Z,33.90
2023-01-30T02:21:08.002Z,32.60
2023-01-30T02:22:07.967Z,34.00
2023-01-30T02:23:07.983Z,34.10
2023-01-30T02:24:07.945Z,31.50
2023-01-30T02:25:07.937Z,32.90
2023-01-30T02:26:07.928Z,34.40
2023-01-30T02:27:07.918Z,33.50
2023-01-30T02:28:07.923Z,34.40
2023-01-30T02:29:07.931Z,33.20
2023-01-30T02:30:07.888Z,33.70
2023-01-30T02:31:07.994Z,33.90
2023-01-30T02:32:07.861Z,33.20
2023-01-30T02:33:07.842Z,33.00
2023-01-30T02:34:07.822Z,33.20
2023-01-30T02:35:07.831Z,33.20
2023-01-30T02:36:07.807Z,35.00
2023-01-30T02:37:07.806Z,34.10
2023-01-30T02:38:07.771Z,33.80
2023-01-30T02:39:07.767Z,34.30
2023-01-30T02:40:07.770Z,34.20
2023-01-30T02:41:07.723Z,33.20
2023-01-30T02:42:07.737Z,33.40
2023-01-30T02:43:15.082Z,33.20
2023-01-30T02:44:07.704Z,32.20
2023-01-30T02:45:07.679Z,34.20
2023-01-30T02:46:07.775Z,32.10
2023-01-30T02:47:07.686Z,32.50
2023-01-30T02:48:07.653Z,34.20
2023-01-30T02:49:07.650Z,33.80
2023-01-30T02:50:07.623Z,32.40
2023-01-30T02:51:07.608Z,32.40
2023-01-30T02:52:07.603Z,34.00
2023-01-30T02:53:07.581Z,33.00
2023-01-30T02:54:07.569Z,33.50
2023-01-30T02:55:07.546Z,34.60
2023-01-30T02:56:07.563Z,34.10
2023-01-30T02:57:07.551Z,33.40
2023-01-30T02:58:07.528Z,32.40
2023-01-30T02:59:07.501Z,33.20
2023-01-30T03:00:07.517Z,34.00
2023-01-30T03:01:07.593Z,35.20
2023-01-30T03:02:07.617Z,35.80
2023-01-30T03:03:07.494Z,34.20
2023-01-30T03:04:07.452Z,35.50
2023-01-30T03:05:07.429Z,33.20
2023-01-30T03:06:07.432Z,34.50
2023-01-30T03:07:07.423Z,34.10
2023-01-30T03:08:07.386Z,35.90
2023-01-30T03:09:08.203Z,33.50
2023-01-30T03:10:07.385Z,34.00
2023-01-30T03:11:07.360Z,32.90
2023-01-30T03:12:07.361Z,32.80
2023-01-30T03:13:07.333Z,34.90
2023-01-30T03:14:07.314Z,34.10
2023-01-30T03:15:07.309Z,34.90
2023-01-30T03:16:07.377Z,33.80
2023-01-30T03:17:07.275Z,34.80
2023-01-30T03:18:07.291Z,34.70
2023-01-30T03:19:07.325Z,34.90
2023-01-30T03:20:07.246Z,36.00
2023-01-30T03:21:07.238Z,34.20
2023-01-30T03:22:07.220Z,33.90
2023-01-30T03:23:07.206Z,35.40
2023-01-30T03:24:07.209Z,33.20
2023-01-30T03:25:07.255Z,34.90
2023-01-30T03:26:07.164Z,36.10
2023-01-30T03:27:07.155Z,36.00
2023-01-30T03:28:07.157Z,33.60
2023-01-30T03:29:07.149Z,35.00
2023-01-30T03:30:07.916Z,34.10
2023-01-30T03:31:07.330Z,34.90
2023-01-30T03:32:07.100Z,33.40
2023-01-30T03:33:07.089Z,34.00
2023-01-30T03:34:07.075Z,34.40
2023-01-30T03:35:07.061Z,34.00
2023-01-30T03:36:07.060Z,33.60
2023-01-30T03:37:07.025Z,33.00
2023-01-30T03:38:07.028Z,34.50
2023-01-30T03:39:07.013Z,37.70
2023-01-30T03:40:06.992Z,33.70
2023-01-30T03:41:06.984Z,37.60
2023-01-30T03:42:06.976Z,33.90
2023-01-30T03:43:06.955Z,35.70
2023-01-30T03:44:06.956Z,35.00
2023-01-30T03:45:06.936Z,33.80
2023-01-30T03:46:06.934Z,34.00
2023-01-30T03:47:06.909Z,32.90
2023-01-30T03:48:06.911Z,36.30
2023-01-30T03:49:06.897Z,33.20
2023-01-30T03:50:06.873Z,34.00
2023-01-30T03:51:06.876Z,34.10
2023-01-30T03:52:06.878Z,34.70
2023-01-30T03:53:06.836Z,35.00
2023-01-30T03:54:06.812Z,32.70
2023-01-30T03:55:06.816Z,34.40
2023-01-30T03:56:06.835Z,36.20
2023-01-30T03:57:06.773Z,33.10
2023-01-30T03:58:06.843Z,33.80
2023-01-30T03:59:06.768Z,34.70
2023-01-30T04:00:06.799Z,33.60
2023-01-30T04:01:07.863Z,33.50
2023-01-30T04:02:06.730Z,34.80
2023-01-30T04:03:06.729Z,34.50
2023-01-30T04:04:06.718Z,35.00
2023-01-30T04:05:06.688Z,34.20
2023-01-30T04:06:06.688Z,34.00
2023-01-30T04:07:06.667Z,33.70
2023-01-30T04:08:06.646Z,33.20
2023-01-30T04:09:06.626Z,33.00
2023-01-30T04:10:06.632Z,34.60
2023-01-30T04:11:06.606Z,33.90
2023-01-30T04:12:06.591Z,34.00
2023-01-30T04:13:06.579Z,34.00
2023-01-30T04:14:06.588Z,34.00
2023-01-30T04:15:06.567Z,33.10
2023-01-30T04:16:06.561Z,35.10
2023-01-30T04:17:06.539Z,36.10
2023-01-30T04:18:06.513Z,34.20
2023-01-30T04:19:06.527Z,32.80
2023-01-30T04:20:06.502Z,34.40
2023-01-30T04:21:06.483Z,32.60
2023-01-30T04:22:06.466Z,33.70
2023-01-30T04:23:06.476Z,35.20
2023-01-30T04:24:06.433Z,34.80
2023-01-30T04:25:06.430Z,33.90
2023-01-30T04:26:06.443Z,34.20
2023-01-30T04:27:06.421Z,33.80
2023-01-30T04:28:06.391Z,35.70
2023-01-30T04:29:06.404Z,33.80
2023-01-30T04:30:06.369Z,35.20
2023-01-30T04:31:06.411Z,36.50
2023-01-30T04:32:06.345Z,33.30
2023-01-30T04:33:06.342Z,33.50
2023-01-30T04:34:06.361Z,33.40
2023-01-30T04:35:06.316Z,34.60
2023-01-30T04:36:06.304Z,33.20
2023-01-30T04:37:06.317Z,33.70
2023-01-30T04:38:06.264Z,33.70
2023-01-30T04:39:06.262Z,33.50
2023-01-30T04:40:06.294Z,34.50
2023-01-30T04:41:06.221Z,33.80
2023-01-30T04:42:06.279Z,33.40
2023-01-30T04:43:06.203Z,34.30
2023-01-30T04:44:06.198Z,32.90
2023-01-30T04:45:06.188Z,33.50
2023-01-30T04:46:06.186Z,32.30
2023-01-30T04:47:06.164Z,34.40
2023-01-30T04:48:06.131Z,32.60
2023-01-30T04:49:06.122Z,33.50
2023-01-30T04:50:06.134Z,32.90
2023-01-30T04:51:06.135Z,33.30
2023-01-30T04:52:06.095Z,32.70
2023-01-30T04:53:06.083Z,35.80
2023-01-30T04:54:06.063Z,34.80
2023-01-30T04:55:06.066Z,33.00
2023-01-30T04:56:06.071Z,35.30
2023-01-30T04:57:06.045Z,34.10
2023-01-30T04:58:06.011Z,34.30
2023-01-30T04:59:06.010Z,34.50
2023-01-30T05:00:06.011Z,34.70
2023-01-30T05:01:06.029Z,33.50
2023-01-30T05:02:06.034Z,34.50
2023-01-30T05:03:05.951Z,33.70
2023-01-30T05:04:05.945Z,34.10
2023-01-30T05:05:05.985Z,36.20
2023-01-30T05:06:05.922Z,33.40
2023-01-30T05:07:05.912Z,31.80
2023-01-30T05:08:05.890Z,35.20
2023-01-30T05:09:05.917Z,32.60
2023-01-30T05:10:05.880Z,32.20
2023-01-30T05:11:05.919Z,34.00
2023-01-30T05:12:05.857Z,34.50
2023-01-30T05:13:05.850Z,33.10
2023-01-30T05:14:05.829Z,33.90
2023-01-30T05:15:05.856Z,33.90
2023-01-30T05:16:05.783Z,33.70
2023-01-30T05:17:05.838Z,34.10
2023-01-30T05:18:06.105Z,35.70
2023-01-30T05:19:05.770Z,34.50
2023-01-30T05:20:05.773Z,34.60
2023-01-30T05:21:05.731Z,34.40
2023-01-30T05:22:05.724Z,33.50
2023-01-30T05:23:05.699Z,34.10
2023-01-30T05:24:05.708Z,35.00
2023-01-30T05:25:05.679Z,34.90
2023-01-30T05:26:05.659Z,34.40
2023-01-30T05:27:05.678Z,35.90
2023-01-30T05:28:05.686Z,35.00
2023-01-30T05:29:05.635Z,37.30
2023-01-30T05:30:05.610Z,35.60
2023-01-30T05:31:05.734Z,34.60
2023-01-30T05:32:05.613Z,35.50
2023-01-30T05:33:05.579Z,35.60
2023-01-30T05:34:05.596Z,34.10
2023-01-30T05:35:05.554Z,33.80
2023-01-30T05:36:05.556Z,35.40
2023-01-30T05:37:05.527Z,32.70
2023-01-30T05:38:05.530Z,33.50
2023-01-30T05:39:05.514Z,35.20
2023-01-30T05:40:05.487Z,35.30
2023-01-30T05:41:05.504Z,34.40
2023-01-30T05:42:05.461Z,34.00
2023-01-30T05:43:05.450Z,36.20
2023-01-30T05:44:05.472Z,33.00
2023-01-30T05:45:05.430Z,32.90
2023-01-30T05:46:05.415Z,34.50
2023-01-30T05:47:05.433Z,33.90
2023-01-30T05:48:05.382Z,33.10
2023-01-30T05:49:05.399Z,34.40
2023-01-30T05:50:05.377Z,35.50
2023-01-30T05:51:05.369Z,33.70
2023-01-30T05:52:05.341Z,34.40
2023-01-30T05:53:05.329Z,34.90
2023-01-30T05:54:06.129Z,34.50
2023-01-30T05:55:05.330Z,33.60
2023-01-30T05:56:05.334Z,34.60
2023-01-30T05:57:05.404Z,34.90
2023-01-30T05:58:05.349Z,34.00
2023-01-30T05:59:06.041Z,34.70
2023-01-30T06:00:05.280Z,36.40
2023-01-30T06:01:05.254Z,35.60
2023-01-30T06:02:05.209Z,37.20
2023-01-30T06:03:05.232Z,35.80
2023-01-30T06:04:05.246Z,35.40
2023-01-30T06:05:05.179Z,36.20
2023-01-30T06:06:05.183Z,33.10
2023-01-30T06:07:05.163Z,34.00
2023-01-30T06:08:05.193Z,34.10
2023-01-30T06:09:05.142Z,33.40
2023-01-30T06:10:05.108Z,33.60
2023-01-30T06:11:05.132Z,35.30
2023-01-30T06:12:05.102Z,34.90
2023-01-30T06:13:05.092Z,35.90
2023-01-30T06:14:05.057Z,34.60
2023-01-30T06:15:05.073Z,34.60
2023-01-30T06:16:05.098Z,34.00
2023-01-30T06:17:05.077Z,34.40
2023-01-30T06:18:05.033Z,35.30
2023-01-30T06:19:05.016Z,35.30
2023-01-30T06:20:04.997Z,33.60
2023-01-30T06:21:05.032Z,34.20
2023-01-30T06:22:04.971Z,34.30
2023-01-30T06:23:04.960Z,33.80
2023-01-30T06:24:04.940Z,36.00
2023-01-30T06:25:04.928Z,34.00
2023-01-30T06:26:07.417Z,35.00
2023-01-30T06:27:04.897Z,35.10
2023-01-30T06:28:04.920Z,35.20
2023-01-30T06:29:04.891Z,34.70
2023-01-30T06:30:04.857Z,34.20
2023-01-30T06:31:04.977Z,34.60
2023-01-30T06:32:04.851Z,35.10
2023-01-30T06:33:04.828Z,34.00
2023-01-30T06:34:04.844Z,33.90
2023-01-30T06:35:04.797Z,33.60
2023-01-30T06:36:04.817Z,32.80
2023-01-30T06:37:04.776Z,34.10
2023-01-30T06:38:04.771Z,33.80
2023-01-30T06:39:04.773Z,33.40
2023-01-30T06:40:04.749Z,33.20
2023-01-30T06:41:04.727Z,36.40
2023-01-30T06:42:04.717Z,34.40
2023-01-30T06:43:04.708Z,34.40
2023-01-30T06:44:04.687Z,35.00
2023-01-30T06:45:04.683Z,33.20
2023-01-30T06:46:04.732Z,34.10
2023-01-30T06:47:04.646Z,33.70
2023-01-30T06:48:04.641Z,33.50
2023-01-30T06:49:04.644Z,34.00
2023-01-30T06:50:04.620Z,34.20
2023-01-30T06:51:04.631Z,33.90
2023-01-30T06:52:04.601Z,34.20
2023-01-30T06:53:04.593Z,34.60
2023-01-30T06:54:04.573Z,34.90
2023-01-30T06:55:04.568Z,34.40
2023-01-30T06:56:04.563Z,34.20
2023-01-30T06:57:04.555Z,34.70
2023-01-30T06:58:04.519Z,34.00
2023-01-30T06:59:04.520Z,35.30
2023-01-30T07:00:04.478Z,34.40
2023-01-30T07:01:04.489Z,34.60
2023-01-30T07:02:04.532Z,35.70
2023-01-30T07:03:04.463Z,35.20
2023-01-30T07:04:04.525Z,33.80
2023-01-30T07:05:04.493Z,34.30
2023-01-30T07:06:04.416Z,34.30
2023-01-30T07:07:05.759Z,34.40
2023-01-30T07:08:04.384Z,34.00
2023-01-30T07:09:04.402Z,34.50
2023-01-30T07:10:10.923Z,35.50
2023-01-30T07:11:05.392Z,33.50
2023-01-30T07:12:04.354Z,35.00
2023-01-30T07:13:04.327Z,34.40
2023-01-30T07:14:06.239Z,35.10
2023-01-30T07:15:04.318Z,34.30
2023-01-30T07:16:04.296Z,35.10
2023-01-30T07:17:04.348Z,32.70
2023-01-30T07:18:04.280Z,32.70
2023-01-30T07:19:04.275Z,33.80
2023-01-30T07:20:04.238Z,32.60
2023-01-30T07:21:04.254Z,34.20
2023-01-30T07:22:04.257Z,34.00
2023-01-30T07:23:04.242Z,34.20
2023-01-30T07:24:04.183Z,33.90
2023-01-30T07:25:04.212Z,33.60
2023-01-30T07:26:04.156Z,33.90
2023-01-30T07:27:04.161Z,32.90
2023-01-30T07:28:04.155Z,34.20
2023-01-30T07:29:04.146Z,34.10
2023-01-30T07:30:04.120Z,33.10
2023-01-30T07:31:04.162Z,33.40
2023-01-30T07:32:04.098Z,32.80
2023-01-30T07:33:04.243Z,33.50
2023-01-30T07:34:04.081Z,34.30
2023-01-30T07:35:05.942Z,33.10
2023-01-30T07:36:04.049Z,32.60
2023-01-30T07:37:04.024Z,33.30
2023-01-30T07:38:04.038Z,32.60
2023-01-30T07:39:04.014Z,31.90
2023-01-30T07:40:04.009Z,35.00
2023-01-30T07:41:03.975Z,33.60
2023-01-30T07:42:03.968Z,33.20
2023-01-30T07:43:03.947Z,33.70
2023-01-30T07:44:03.946Z,33.00
2023-01-30T07:45:03.934Z,33.60
2023-01-30T07:46:03.943Z,33.60
2023-01-30T07:47:03.944Z,31.80
2023-01-30T07:48:03.896Z,32.30
2023-01-30T07:49:03.866Z,32.50
2023-01-30T07:50:03.867Z,32.80
2023-01-30T07:51:03.867Z,32.40
2023-01-30T07:52:03.851Z,33.40
2023-01-30T07:53:03.835Z,32.60
2023-01-30T07:54:03.841Z,33.80
2023-01-30T07:55:03.818Z,32.40
2023-01-30T07:56:03.796Z,34.80
2023-01-30T07:57:03.779Z,33.60
2023-01-30T07:58:03.763Z,34.00
2023-01-30T07:59:03.754Z,33.70
2023-01-30T08:00:03.752Z,32.00
2023-01-30T08:01:03.790Z,33.00
2023-01-30T08:02:03.729Z,32.10
2023-01-30T08:03:03.694Z,34.40
2023-01-30T08:04:03.743Z,32.50
2023-01-30T08:05:06.105Z,32.70
2023-01-30T08:06:03.676Z,35.00
2023-01-30T08:07:03.645Z,31.70
2023-01-30T08:08:03.668Z,32.30
2023-01-30T08:09:03.628Z,33.70
2023-01-30T08:10:03.635Z,32.30
2023-01-30T08:11:03.656Z,31.00
2023-01-30T08:12:03.585Z,32.30
2023-01-30T08:13:03.577Z,34.60
2023-01-30T08:14:03.588Z,32.00
2023-01-30T08:15:03.600Z,33.60
2023-01-30T08:16:03.560Z,33.30
2023-01-30T08:17:03.528Z,32.40
2023-01-30T08:18:03.532Z,31.70
2023-01-30T08:19:03.511Z,33.10
2023-01-30T08:20:03.495Z,32.70
2023-01-30T08:21:03.486Z,34.40
2023-01-30T08:22:03.487Z,35.80
2023-01-30T08:23:03.500Z,33.70
2023-01-30T08:24:03.453Z,33.20
2023-01-30T08:25:03.427Z,32.10
2023-01-30T08:26:03.451Z,32.00
2023-01-30T08:27:03.420Z,31.40
2023-01-30T08:28:03.383Z,31.90
2023-01-30T08:29:03.416Z,31.30
2023-01-30T08:30:03.363Z,31.80
2023-01-30T08:31:03.500Z,31.90
2023-01-30T08:32:03.371Z,34.50
2023-01-30T08:33:03.333Z,31.30
2023-01-30T08:34:03.325Z,32.10
2023-01-30T08:35:03.291Z,31.80
2023-01-30T08:36:03.425Z,34.10
2023-01-30T08:37:03.283Z,31.10
2023-01-30T08:38:03.447Z,34.30
2023-01-30T08:39:03.240Z,32.00
2023-01-30T08:40:03.246Z,32.00
2023-01-30T08:41:03.378Z,29.70
2023-01-30T08:42:03.207Z,30.30
2023-01-30T08:43:11.004Z,32.70
2023-01-30T08:44:03.199Z,30.10
2023-01-30T08:45:03.193Z,32.30
2023-01-30T08:46:03.254Z,29.50
2023-01-30T08:47:03.162Z,31.30
2023-01-30T08:48:03.139Z,32.20
2023-01-30T08:49:03.165Z,29.50
2023-01-30T08:50:03.108Z,32.00
2023-01-30T08:51:03.103Z,31.00
2023-01-30T08:52:03.097Z,32.20
2023-01-30T08:53:03.066Z,30.40
2023-01-30T08:54:03.063Z,30.60
2023-01-30T08:55:03.042Z,30.20
2023-01-30T08:56:03.027Z,29.90
2023-01-30T08:57:03.020Z,30.90
2023-01-30T08:58:02.999Z,30.90
2023-01-30T08:59:02.991Z,30.60
2023-01-30T09:00:03.133Z,31.20
2023-01-30T09:01:02.990Z,30.90
2023-01-30T09:02:02.977Z,29.50
2023-01-30T09:03:02.974Z,29.30
2023-01-30T09:04:02.946Z,31.20
2023-01-30T09:05:02.933Z,31.60
2023-01-30T09:06:02.901Z,32.50
2023-01-30T09:07:02.882Z,30.60
2023-01-30T09:08:02.893Z,30.00
2023-01-30T09:09:02.876Z,29.30
2023-01-30T09:10:02.865Z,30.90
2023-01-30T09:11:02.832Z,29.30
2023-01-30T09:12:02.829Z,28.90
2023-01-30T09:13:02.820Z,29.60
2023-01-30T09:14:02.792Z,28.90
2023-01-30T09:15:02.808Z,29.40
2023-01-30T09:16:02.792Z,29.50
2023-01-30T09:17:02.799Z,30.30
2023-01-30T09:18:02.763Z,30.20
2023-01-30T09:19:02.729Z,29.00
2023-01-30T09:20:02.721Z,31.10
2023-01-30T09:21:02.714Z,30.50
2023-01-30T09:22:02.705Z,29.20
2023-01-30T09:23:02.695Z,28.80
2023-01-30T09:24:02.670Z,30.70
2023-01-30T09:25:02.680Z,29.60
2023-01-30T09:26:02.638Z,28.80
2023-01-30T09:27:02.627Z,28.40
2023-01-30T09:28:02.656Z,30.20
2023-01-30T09:29:02.598Z,30.00
2023-01-30T09:30:02.593Z,29.60
2023-01-30T09:31:02.906Z,30.20
2023-01-30T09:32:02.575Z,30.60
2023-01-30T09:33:02.562Z,31.00
2023-01-30T09:34:02.559Z,29.80
2023-01-30T09:35:02.556Z,29.80
2023-01-30T09:36:02.545Z,28.50
2023-01-30T09:37:04.669Z,30.70
2023-01-30T09:38:02.532Z,29.90
2023-01-30T09:39:02.487Z,30.40
2023-01-30T09:40:02.473Z,30.60
2023-01-30T09:41:02.439Z,28.40
2023-01-30T09:42:02.452Z,30.20
2023-01-30T09:43:02.462Z,28.30
2023-01-30T09:44:02.422Z,29.50
2023-01-30T09:45:02.390Z,30.60
2023-01-30T09:46:02.447Z,30.60
2023-01-30T09:47:02.393Z,29.20
2023-01-30T09:48:02.691Z,29.60
2023-01-30T09:49:02.359Z,27.60
2023-01-30T09:50:02.365Z,29.30
2023-01-30T09:51:02.341Z,30.20
2023-01-30T09:52:02.309Z,28.80
2023-01-30T09:53:02.310Z,30.20
2023-01-30T09:54:02.377Z,29.90
2023-01-30T09:55:02.283Z,29.20
2023-01-30T09:56:02.276Z,29.80
2023-01-30T09:57:02.238Z,29.80
2023-01-30T09:58:02.246Z,29.80
2023-01-30T09:59:02.250Z,29.30
2023-01-30T10:00:02.226Z,29.80
2023-01-30T10:01:02.205Z,29.00
2023-01-30T10:02:02.195Z,28.10
2023-01-30T10:03:02.226Z,28.60
2023-01-30T10:04:02.183Z,30.80
2023-01-30T10:05:02.636Z,30.90
2023-01-30T10:06:02.144Z,29.00
2023-01-30T10:07:02.117Z,29.00
2023-01-30T10:08:02.111Z,29.70
2023-01-30T10:09:02.087Z,30.00
2023-01-30T10:10:02.124Z,29.80
2023-01-30T10:11:10.059Z,29.20
2023-01-30T10:12:03.071Z,30.00
2023-01-30T10:13:02.036Z,30.50
2023-01-30T10:14:02.059Z,29.90
2023-01-30T10:15:02.021Z,29.80
2023-01-30T10:16:02.055Z,29.00
2023-01-30T10:17:02.003Z,30.60
2023-01-30T10:18:02.050Z,29.00
2023-01-30T10:19:02.010Z,28.50
2023-01-30T10:20:01.966Z,29.00
2023-01-30T10:21:01.980Z,29.40
2023-01-30T10:22:01.927Z,28.90
2023-01-30T10:23:01.921Z,28.50
2023-01-30T10:24:01.896Z,29.20
2023-01-30T10:25:01.886Z,29.20
2023-01-30T10:26:01.905Z,29.40
2023-01-30T10:27:03.747Z,30.10
2023-01-30T10:28:01.862Z,29.70
2023-01-30T10:29:08.765Z,30.00
2023-01-30T10:30:02.840Z,30.50
2023-01-30T10:31:01.968Z,29.70
2023-01-30T10:32:01.840Z,29.50
2023-01-30T10:33:01.865Z,29.10
2023-01-30T10:34:01.777Z,28.80
2023-01-30T10:35:01.758Z,28.90
2023-01-30T10:36:01.782Z,29.00
2023-01-30T10:37:01.749Z,30.50
2023-01-30T10:38:01.740Z,28.70
2023-01-30T10:39:01.718Z,28.00
2023-01-30T10:40:02.523Z,28.90
2023-01-30T10:41:01.728Z,26.70
2023-01-30T10:42:01.688Z,27.20
2023-01-30T10:43:01.693Z,28.00
2023-01-30T10:44:01.671Z,29.70
2023-01-30T10:45:01.725Z,28.00
2023-01-30T10:46:01.629Z,29.50
2023-01-30T10:47:01.639Z,28.50
2023-01-30T10:48:01.610Z,27.00
2023-01-30T10:49:01.603Z,28.50
2023-01-30T10:50:01.583Z,27.90
2023-01-30T10:51:01.592Z,27.70
2023-01-30T10:52:01.576Z,27.30
2023-01-30T10:53:01.666Z,27.20
2023-01-30T10:54:01.539Z,27.10
2023-01-30T10:55:01.542Z,27.10
2023-01-30T10:56:01.519Z,28.40
2023-01-30T10:57:01.486Z,29.10
2023-01-30T10:58:01.514Z,27.90
2023-01-30T10:59:01.471Z,27.30
2023-01-30T11:00:01.465Z,26.60
2023-01-30T11:01:01.424Z,28.20
2023-01-30T11:02:01.478Z,26.40
2023-01-30T11:03:01.480Z,26.40
2023-01-30T11:04:01.419Z,25.50
2023-01-30T11:05:01.390Z,25.00
2023-01-30T11:06:01.393Z,25.50
2023-01-30T11:07:01.360Z,26.50
2023-01-30T11:08:01.366Z,26.10
2023-01-30T11:09:01.336Z,26.60
2023-01-30T11:10:01.330Z,26.90
2023-01-30T11:11:01.300Z,25.50
2023-01-30T11:12:01.310Z,25.20
2023-01-30T11:13:01.281Z,26.10
2023-01-30T11:14:01.279Z,24.80
2023-01-30T11:15:01.277Z,26.00
2023-01-30T11:16:01.318Z,26.60
2023-01-30T11:17:01.258Z,26.40
2023-01-30T11:18:27.120Z,25.60
2023-01-30T11:20:02.211Z,26.30
2023-01-30T11:21:01.215Z,26.70
2023-01-30T11:22:01.167Z,26.50
2023-01-30T11:23:01.155Z,26.60
2023-01-30T11:24:01.154Z,24.90
2023-01-30T11:25:01.129Z,26.10
2023-01-30T11:26:11.047Z,26.20
2023-01-30T11:27:02.170Z,25.80
2023-01-30T11:28:01.110Z,24.90
2023-01-30T11:29:01.142Z,25.40
2023-01-30T11:30:01.104Z,25.20
2023-01-30T11:31:01.195Z,25.80
2023-01-30T11:32:01.280Z,25.50
2023-01-30T11:33:01.041Z,26.20
2023-01-30T11:34:01.016Z,25.90
2023-01-30T11:35:01.017Z,26.10
2023-01-30T11:36:00.987Z,26.50
2023-01-30T11:37:00.985Z,26.20
2023-01-30T11:38:01.010Z,25.20
2023-01-30T11:39:00.952Z,26.20
2023-01-30T11:40:00.934Z,25.20
2023-01-30T11:41:00.916Z,26.00
2023-01-30T11:42:00.923Z,26.10
2023-01-30T11:43:00.911Z,26.20
2023-01-30T11:44:00.943Z,27.10
2023-01-30T11:45:16.169Z,26.80
2023-01-30T11:46:01.930Z,25.90
2023-01-30T11:47:00.885Z,24.60
2023-01-30T11:48:04.924Z,25.70
2023-01-30T11:49:14.131Z,26.40
2023-01-30T11:50:02.392Z,26.10
2023-01-30T11:51:01.804Z,26.20
2023-01-30T11:52:00.786Z,26.50
2023-01-30T11:53:00.798Z,25.30
2023-01-30T11:54:00.771Z,25.90
2023-01-30T11:55:00.775Z,25.10
2023-01-30T11:56:06.342Z,26.70
2023-01-30T11:57:01.753Z,26.10
2023-01-30T11:58:00.697Z,27.80
2023-01-30T11:59:00.698Z,25.70
2023-01-30T12:00:00.719Z,26.40
2023-01-30T12:01:00.681Z,25.70
2023-01-30T12:02:00.734Z,25.90
2023-01-30T12:03:02.167Z,26.30
2023-01-30T12:04:00.630Z,25.50
2023-01-30T12:05:00.640Z,25.70
2023-01-30T12:06:00.615Z,24.90
2023-01-30T12:07:00.610Z,25.80
2023-01-30T12:08:00.576Z,25.70
2023-01-30T12:09:00.567Z,25.30
2023-01-30T12:10:00.563Z,25.80
2023-01-30T12:11:00.559Z,24.60
2023-01-30T12:12:00.541Z,25.60
2023-01-30T12:13:00.519Z,25.70
2023-01-30T12:14:00.498Z,25.00
2023-01-30T12:15:00.501Z,25.30
2023-01-30T12:16:00.553Z,25.60
2023-01-30T12:17:00.473Z,26.30
2023-01-30T12:18:00.497Z,26.00
2023-01-30T12:19:00.443Z,25.70
2023-01-30T12:20:00.444Z,28.00
2023-01-30T12:21:00.428Z,27.00
2023-01-30T12:22:00.449Z,25.80
2023-01-30T12:23:00.406Z,26.20
2023-01-30T12:24:00.403Z,26.60
2023-01-30T12:25:00.385Z,27.70
2023-01-30T12:26:00.361Z,28.40
2023-01-30T12:27:00.347Z,26.70
2023-01-30T12:28:05.519Z,25.90
2023-01-30T12:29:00.308Z,27.20
2023-01-30T12:30:00.309Z,28.10
2023-01-30T12:31:00.279Z,27.50
2023-01-30T12:32:00.339Z,29.00
2023-01-30T12:34:00.278Z,27.30
2023-01-30T12:35:00.365Z,27.30
2023-01-30T12:36:00.232Z,27.50
2023-01-30T12:37:00.224Z,27.40
2023-01-30T12:38:00.239Z,26.80
2023-01-30T12:39:00.190Z,26.30
2023-01-30T12:40:00.183Z,26.90
2023-01-30T12:41:00.148Z,25.50
2023-01-30T12:42:00.158Z,26.40
2023-01-30T12:43:00.136Z,27.90
2023-01-30T12:44:00.147Z,28.50
2023-01-30T12:45:00.127Z,25.70
2023-01-30T12:46:00.151Z,27.30
2023-01-30T12:47:00.106Z,26.10
2023-01-30T12:48:00.115Z,26.40
2023-01-30T12:49:10.884Z,25.30
2023-01-30T12:50:01.048Z,25.70
2023-01-30T12:51:00.033Z,25.50
2023-01-30T12:52:00.037Z,26.20
2023-01-30T12:53:00.011Z,26.90
2023-01-30T12:54:00.038Z,26.20
2023-01-30T12:54:59.990Z,24.60